Hlavní strana
METAR-TAF:

METAR-TAF

Letiště :

Vinnycja, Ukrajina

zeměpisná šířka: 49-14-23N, zeměpisná délka: 028-36-50E, výška: 974 m

Aktuální stav počasí

Zpráva byla vytvořena před 36 minutami, v 02:00 UTC
vítr z různých směrů 2 kt
Teplota 8°C
Vlhkost vzduchu 93%
Tlak 1018 hPa
Viditelnost: 2500 m
kouřmo

METAR: UKWW 190200Z VRB01MPS 2500 BR NSC 08/07 Q1018 TEMPO 1500 BR SCT005

Čas: 05:36 (02:36 UTC)

Předpověď počasí

Zpráva byla vytvořena před 26 minutami, v 02:10 UTC
Předpověď platná od 19 v 03 UTC do 19 v 12 UTC
vítr z různých směrů 2 kt
Viditelnost: 6000 m
Polojasno ve výšce 2000 ft
Dočasný
od 19 v 03 UTC do 19 v 07 UTC
Viditelnost: 0500 m
ve výšce 300 ft
mlha

TAF: UKWW 190210Z 1903/1912 VRB01MPS 6000 SCT020 TEMPO 1903/1907 0500 FG VV003

Stav a předpovědi počasí z více než 4 000 letišť (zprávy METAR a TAF).

Červené a žluté tečky na mapě představují dostupné meteorologické stanice.

Když kurzor umístíte na tečku, zobrazí se název stanice.

Pak kliknutím zobrazíte stav a předpověď počasí.

Chcete-li změnit mapu, kliknutím na zelené tlačítko se znaménkem +mapu přiblížíte, kliknutím na zelené tlačítko se znaménkem – mapu oddálíte a kliknutím na zelené šipky přejdete na sousední mapy.


METAR-TAF: